sensor_id;sensor_type;location;lat;lon;timestamp;temperature;humidity
69938;DHT22;57248;47.320;15.998;2023-12-14T00:01:56;2.52;99.99
69938;DHT22;57248;47.320;15.998;2023-12-14T00:04:28;2.49;99.87
69938;DHT22;57248;47.320;15.998;2023-12-14T00:07:00;2.49;99.85
69938;DHT22;57248;47.320;15.998;2023-12-14T00:09:32;2.51;99.81
69938;DHT22;57248;47.320;15.998;2023-12-14T00:12:04;2.52;99.80
69938;DHT22;57248;47.320;15.998;2023-12-14T00:14:36;2.52;99.75
69938;DHT22;57248;47.320;15.998;2023-12-14T00:17:02;2.46;99.65
69938;DHT22;57248;47.320;15.998;2023-12-14T00:19:34;2.45;99.91
69938;DHT22;57248;47.320;15.998;2023-12-14T00:22:06;2.33;99.99
69938;DHT22;57248;47.320;15.998;2023-12-14T00:24:38;2.38;99.99
69938;DHT22;57248;47.320;15.998;2023-12-14T00:27:10;2.48;99.99
69938;DHT22;57248;47.320;15.998;2023-12-14T00:29:42;2.46;99.99
69938;DHT22;57248;47.320;15.998;2023-12-14T00:32:14;2.49;99.99
69938;DHT22;57248;47.320;15.998;2023-12-14T00:34:46;2.49;99.93
69938;DHT22;57248;47.320;15.998;2023-12-14T00:37:18;2.51;99.86
69938;DHT22;57248;47.320;15.998;2023-12-14T00:39:50;2.49;99.74
69938;DHT22;57248;47.320;15.998;2023-12-14T00:42:22;2.48;99.63
69938;DHT22;57248;47.320;15.998;2023-12-14T00:44:54;2.45;99.98
69938;DHT22;57248;47.320;15.998;2023-12-14T00:47:26;2.45;99.99
69938;DHT22;57248;47.320;15.998;2023-12-14T00:49:58;2.49;99.89
69938;DHT22;57248;47.320;15.998;2023-12-14T00:52:30;2.51;99.91
69938;DHT22;57248;47.320;15.998;2023-12-14T00:54:56;2.44;99.99
69938;DHT22;57248;47.320;15.998;2023-12-14T00:57:28;2.49;99.99
69938;DHT22;57248;47.320;15.998;2023-12-14T01:00:00;2.52;99.99
69938;DHT22;57248;47.320;15.998;2023-12-14T01:02:32;2.55;99.99
69938;DHT22;57248;47.320;15.998;2023-12-14T01:05:04;2.46;99.99
69938;DHT22;57248;47.320;15.998;2023-12-14T01:07:36;2.52;99.99
69938;DHT22;57248;47.320;15.998;2023-12-14T01:10:08;2.54;99.99
69938;DHT22;57248;47.320;15.998;2023-12-14T01:12:40;2.54;99.99
69938;DHT22;57248;47.320;15.998;2023-12-14T01:15:12;2.56;99.99
69938;DHT22;57248;47.320;15.998;2023-12-14T01:17:44;2.56;99.99
69938;DHT22;57248;47.320;15.998;2023-12-14T01:20:16;2.58;99.99
69938;DHT22;57248;47.320;15.998;2023-12-14T01:22:48;2.55;99.96
69938;DHT22;57248;47.320;15.998;2023-12-14T01:25:20;2.55;99.92
69938;DHT22;57248;47.320;15.998;2023-12-14T01:27:52;2.51;99.94
69938;DHT22;57248;47.320;15.998;2023-12-14T01:30:24;2.51;99.92
69938;DHT22;57248;47.320;15.998;2023-12-14T01:32:50;2.55;99.99
69938;DHT22;57248;47.320;15.998;2023-12-14T01:35:21;2.54;99.99
69938;DHT22;57248;47.320;15.998;2023-12-14T01:37:53;2.54;99.99
69938;DHT22;57248;47.320;15.998;2023-12-14T01:40:25;2.54;99.99
69938;DHT22;57248;47.320;15.998;2023-12-14T01:43:07;2.56;99.99
69938;DHT22;57248;47.320;15.998;2023-12-14T01:45:40;2.55;99.99
69938;DHT22;57248;47.320;15.998;2023-12-14T01:48:12;2.58;99.92
69938;DHT22;57248;47.320;15.998;2023-12-14T01:50:44;2.56;99.92
69938;DHT22;57248;47.320;15.998;2023-12-14T01:53:16;2.56;99.88
69938;DHT22;57248;47.320;15.998;2023-12-14T01:55:48;2.56;99.78
69938;DHT22;57248;47.320;15.998;2023-12-14T01:58:20;2.55;99.75
69938;DHT22;57248;47.320;15.998;2023-12-14T02:01:05;2.55;99.83
69938;DHT22;57248;47.320;15.998;2023-12-14T02:03:54;2.56;99.82
69938;DHT22;57248;47.320;15.998;2023-12-14T02:06:26;2.55;99.75
69938;DHT22;57248;47.320;15.998;2023-12-14T02:08:52;2.54;99.80
69938;DHT22;57248;47.320;15.998;2023-12-14T02:11:24;2.54;99.70
69938;DHT22;57248;47.320;15.998;2023-12-14T02:13:56;2.55;99.66
69938;DHT22;57248;47.320;15.998;2023-12-14T02:16:28;2.52;99.77
69938;DHT22;57248;47.320;15.998;2023-12-14T02:19:00;2.55;99.93
69938;DHT22;57248;47.320;15.998;2023-12-14T02:21:32;2.56;99.92
69938;DHT22;57248;47.320;15.998;2023-12-14T02:24:04;2.61;99.98
69938;DHT22;57248;47.320;15.998;2023-12-14T02:26:36;2.56;99.95
69938;DHT22;57248;47.320;15.998;2023-12-14T02:29:08;2.52;99.94
69938;DHT22;57248;47.320;15.998;2023-12-14T02:31:40;2.51;99.87
69938;DHT22;57248;47.320;15.998;2023-12-14T02:34:06;2.54;99.82
69938;DHT22;57248;47.320;15.998;2023-12-14T02:36:39;2.52;99.99
69938;DHT22;57248;47.320;15.998;2023-12-14T02:39:11;2.56;99.99
69938;DHT22;57248;47.320;15.998;2023-12-14T02:41:43;2.59;99.99
69938;DHT22;57248;47.320;15.998;2023-12-14T02:44:15;2.58;99.99
69938;DHT22;57248;47.320;15.998;2023-12-14T02:46:41;2.59;99.99
69938;DHT22;57248;47.320;15.998;2023-12-14T02:49:12;2.62;99.99
69938;DHT22;57248;47.320;15.998;2023-12-14T02:51:44;2.61;99.99
69938;DHT22;57248;47.320;15.998;2023-12-14T02:54:16;2.59;99.97
69938;DHT22;57248;47.320;15.998;2023-12-14T02:56:48;2.61;99.86
69938;DHT22;57248;47.320;15.998;2023-12-14T02:59:20;2.58;99.83
69938;DHT22;57248;47.320;15.998;2023-12-14T03:01:52;2.61;99.78
69938;DHT22;57248;47.320;15.998;2023-12-14T03:04:32;2.59;99.76
69938;DHT22;57248;47.320;15.998;2023-12-14T03:07:03;2.64;99.74
69938;DHT22;57248;47.320;15.998;2023-12-14T03:09:39;2.62;99.90
69938;DHT22;57248;47.320;15.998;2023-12-14T03:12:13;2.62;99.99
69938;DHT22;57248;47.320;15.998;2023-12-14T03:14:45;2.65;99.99
69938;DHT22;57248;47.320;15.998;2023-12-14T03:17:17;2.55;99.99
69938;DHT22;57248;47.320;15.998;2023-12-14T03:19:43;2.61;99.99
69938;DHT22;57248;47.320;15.998;2023-12-14T03:22:14;2.61;99.99
69938;DHT22;57248;47.320;15.998;2023-12-14T03:24:46;2.61;99.99
69938;DHT22;57248;47.320;15.998;2023-12-14T03:27:18;2.65;99.99
69938;DHT22;57248;47.320;15.998;2023-12-14T03:29:51;2.59;99.99
69938;DHT22;57248;47.320;15.998;2023-12-14T03:32:23;2.59;99.99
69938;DHT22;57248;47.320;15.998;2023-12-14T03:34:55;2.58;99.99
69938;DHT22;57248;47.320;15.998;2023-12-14T03:37:27;2.54;99.99
69938;DHT22;57248;47.320;15.998;2023-12-14T03:39:59;2.46;99.99
69938;DHT22;57248;47.320;15.998;2023-12-14T03:42:31;2.41;99.99
69938;DHT22;57248;47.320;15.998;2023-12-14T03:44:57;2.37;99.99
69938;DHT22;57248;47.320;15.998;2023-12-14T03:47:28;2.45;99.99
69938;DHT22;57248;47.320;15.998;2023-12-14T03:49:54;2.54;99.99
69938;DHT22;57248;47.320;15.998;2023-12-14T03:52:25;2.58;99.99
69938;DHT22;57248;47.320;15.998;2023-12-14T03:54:59;2.66;99.99
69938;DHT22;57248;47.320;15.998;2023-12-14T03:57:31;2.62;99.99
69938;DHT22;57248;47.320;15.998;2023-12-14T04:00:05;2.59;99.99
69938;DHT22;57248;47.320;15.998;2023-12-14T04:02:44;2.61;99.99
69938;DHT22;57248;47.320;15.998;2023-12-14T04:05:16;2.58;99.99
69938;DHT22;57248;47.320;15.998;2023-12-14T04:07:48;2.56;99.99
69938;DHT22;57248;47.320;15.998;2023-12-14T04:10:20;2.64;99.99
69938;DHT22;57248;47.320;15.998;2023-12-14T04:12:52;2.64;99.99
69938;DHT22;57248;47.320;15.998;2023-12-14T04:15:18;2.61;99.99
69938;DHT22;57248;47.320;15.998;2023-12-14T04:17:49;2.62;99.99
69938;DHT22;57248;47.320;15.998;2023-12-14T04:20:21;2.59;99.99
69938;DHT22;57248;47.320;15.998;2023-12-14T04:22:53;2.62;99.99
69938;DHT22;57248;47.320;15.998;2023-12-14T04:25:25;2.61;99.99
69938;DHT22;57248;47.320;15.998;2023-12-14T04:27:57;2.61;99.99
69938;DHT22;57248;47.320;15.998;2023-12-14T04:30:29;2.61;99.99
69938;DHT22;57248;47.320;15.998;2023-12-14T04:32:55;2.64;99.99
69938;DHT22;57248;47.320;15.998;2023-12-14T04:35:27;2.62;99.99
69938;DHT22;57248;47.320;15.998;2023-12-14T04:38:00;2.55;99.99
69938;DHT22;57248;47.320;15.998;2023-12-14T04:40:32;2.55;99.99
69938;DHT22;57248;47.320;15.998;2023-12-14T04:43:05;2.55;99.99
69938;DHT22;57248;47.320;15.998;2023-12-14T04:45:37;2.58;99.99
69938;DHT22;57248;47.320;15.998;2023-12-14T04:48:10;2.58;99.99
69938;DHT22;57248;47.320;15.998;2023-12-14T04:50:36;2.54;99.99
69938;DHT22;57248;47.320;15.998;2023-12-14T04:53:07;2.55;99.99
69938;DHT22;57248;47.320;15.998;2023-12-14T04:55:40;2.59;99.99
69938;DHT22;57248;47.320;15.998;2023-12-14T04:58:12;2.64;99.99
69938;DHT22;57248;47.320;15.998;2023-12-14T05:00:44;2.62;99.99
69938;DHT22;57248;47.320;15.998;2023-12-14T05:03:34;2.64;99.99
69938;DHT22;57248;47.320;15.998;2023-12-14T05:06:06;2.65;99.99
69938;DHT22;57248;47.320;15.998;2023-12-14T05:08:38;2.65;99.99
69938;DHT22;57248;47.320;15.998;2023-12-14T05:11:12;2.72;99.99
69938;DHT22;57248;47.320;15.998;2023-12-14T05:13:44;2.73;99.99
69938;DHT22;57248;47.320;15.998;2023-12-14T05:16:17;2.71;99.99
69938;DHT22;57248;47.320;15.998;2023-12-14T05:18:49;2.66;99.99
69938;DHT22;57248;47.320;15.998;2023-12-14T05:21:21;2.64;99.99
69938;DHT22;57248;47.320;15.998;2023-12-14T05:23:53;2.62;99.99
69938;DHT22;57248;47.320;15.998;2023-12-14T05:26:25;2.59;99.99
69938;DHT22;57248;47.320;15.998;2023-12-14T05:28:57;2.56;99.99
69938;DHT22;57248;47.320;15.998;2023-12-14T05:31:29;2.56;99.99
69938;DHT22;57248;47.320;15.998;2023-12-14T05:34:08;2.56;99.99
69938;DHT22;57248;47.320;15.998;2023-12-14T05:36:40;2.51;99.99
69938;DHT22;57248;47.320;15.998;2023-12-14T05:39:12;2.48;99.99
69938;DHT22;57248;47.320;15.998;2023-12-14T05:41:41;2.51;99.99
69938;DHT22;57248;47.320;15.998;2023-12-14T05:44:13;2.52;99.99
69938;DHT22;57248;47.320;15.998;2023-12-14T05:46:45;2.49;99.99
69938;DHT22;57248;47.320;15.998;2023-12-14T05:49:17;2.49;99.99
69938;DHT22;57248;47.320;15.998;2023-12-14T05:51:49;2.45;99.99
69938;DHT22;57248;47.320;15.998;2023-12-14T05:54:21;2.41;99.99
69938;DHT22;57248;47.320;15.998;2023-12-14T05:56:53;2.38;99.99
69938;DHT22;57248;47.320;15.998;2023-12-14T05:59:27;2.41;99.99
69938;DHT22;57248;47.320;15.998;2023-12-14T06:02:06;2.38;99.99
69938;DHT22;57248;47.320;15.998;2023-12-14T06:04:38;2.34;99.99
69938;DHT22;57248;47.320;15.998;2023-12-14T06:07:14;2.37;99.99
69938;DHT22;57248;47.320;15.998;2023-12-14T06:09:46;2.31;99.99
69938;DHT22;57248;47.320;15.998;2023-12-14T06:12:12;2.31;99.99
69938;DHT22;57248;47.320;15.998;2023-12-14T06:14:44;2.34;99.99
69938;DHT22;57248;47.320;15.998;2023-12-14T06:17:16;2.33;99.99
69938;DHT22;57248;47.320;15.998;2023-12-14T06:19:48;2.11;99.99
69938;DHT22;57248;47.320;15.998;2023-12-14T06:22:20;2.24;99.99
69938;DHT22;57248;47.320;15.998;2023-12-14T06:24:52;2.21;99.99
69938;DHT22;57248;47.320;15.998;2023-12-14T06:27:24;2.24;99.99
69938;DHT22;57248;47.320;15.998;2023-12-14T06:29:58;2.25;99.99
69938;DHT22;57248;47.320;15.998;2023-12-14T06:32:30;2.28;99.99
69938;DHT22;57248;47.320;15.998;2023-12-14T06:35:02;2.30;99.99
69938;DHT22;57248;47.320;15.998;2023-12-14T06:37:34;2.13;99.99
69938;DHT22;57248;47.320;15.998;2023-12-14T06:40:08;2.23;99.99
69938;DHT22;57248;47.320;15.998;2023-12-14T06:42:40;2.21;99.99
69938;DHT22;57248;47.320;15.998;2023-12-14T06:45:07;2.20;99.99
69938;DHT22;57248;47.320;15.998;2023-12-14T06:47:39;2.27;99.99
69938;DHT22;57248;47.320;15.998;2023-12-14T06:50:14;2.21;99.99
69938;DHT22;57248;47.320;15.998;2023-12-14T06:52:46;2.13;99.99
69938;DHT22;57248;47.320;15.998;2023-12-14T06:55:18;2.15;99.99
69938;DHT22;57248;47.320;15.998;2023-12-14T06:57:50;2.21;99.99
69938;DHT22;57248;47.320;15.998;2023-12-14T07:00:22;2.35;99.99
69938;DHT22;57248;47.320;15.998;2023-12-14T07:03:09;2.44;99.99
69938;DHT22;57248;47.320;15.998;2023-12-14T07:05:42;2.46;99.99
69938;DHT22;57248;47.320;15.998;2023-12-14T07:08:13;2.55;99.99
69938;DHT22;57248;47.320;15.998;2023-12-14T07:10:45;2.55;99.99
69938;DHT22;57248;47.320;15.998;2023-12-14T07:13:17;3.48;99.99
69938;DHT22;57248;47.320;15.998;2023-12-14T07:15:51;2.92;99.99
69938;DHT22;57248;47.320;15.998;2023-12-14T07:18:17;2.93;99.99
69938;DHT22;57248;47.320;15.998;2023-12-14T07:20:49;3.00;99.99
69938;DHT22;57248;47.320;15.998;2023-12-14T07:23:22;3.03;99.99
69938;DHT22;57248;47.320;15.998;2023-12-14T07:25:54;3.00;99.99
69938;DHT22;57248;47.320;15.998;2023-12-14T07:28:28;3.06;99.99
69938;DHT22;57248;47.320;15.998;2023-12-14T07:31:00;3.14;99.99
69938;DHT22;57248;47.320;15.998;2023-12-14T07:33:32;3.06;99.99
69938;DHT22;57248;47.320;15.998;2023-12-14T07:36:04;3.19;99.99
69938;DHT22;57248;47.320;15.998;2023-12-14T07:38:37;3.12;99.99
69938;DHT22;57248;47.320;15.998;2023-12-14T07:41:09;4.67;99.99
69938;DHT22;57248;47.320;15.998;2023-12-14T07:43:41;10.66;97.52
69938;DHT22;57248;47.320;15.998;2023-12-14T07:46:13;10.77;85.70
69938;DHT22;57248;47.320;15.998;2023-12-14T07:48:48;6.71;91.47
69938;DHT22;57248;47.320;15.998;2023-12-14T07:51:19;4.94;95.94
69938;DHT22;57248;47.320;15.998;2023-12-14T07:53:52;5.01;96.70
69938;DHT22;57248;47.320;15.998;2023-12-14T07:56:24;4.05;97.28
69938;DHT22;57248;47.320;15.998;2023-12-14T07:58:58;4.12;97.90
69938;DHT22;57248;47.320;15.998;2023-12-14T08:01:30;4.57;97.76
69938;DHT22;57248;47.320;15.998;2023-12-14T08:04:17;4.05;97.68
69938;DHT22;57248;47.320;15.998;2023-12-14T08:06:49;4.15;97.46
69938;DHT22;57248;47.320;15.998;2023-12-14T08:09:21;4.75;96.51
69938;DHT22;57248;47.320;15.998;2023-12-14T08:11:55;4.88;95.88
69938;DHT22;57248;47.320;15.998;2023-12-14T08:14:27;4.67;97.54
69938;DHT22;57248;47.320;15.998;2023-12-14T08:17:00;5.02;96.74
69938;DHT22;57248;47.320;15.998;2023-12-14T08:19:32;5.25;96.46
69938;DHT22;57248;47.320;15.998;2023-12-14T08:22:04;5.67;96.01
69938;DHT22;57248;47.320;15.998;2023-12-14T08:24:30;6.75;93.53
69938;DHT22;57248;47.320;15.998;2023-12-14T08:27:01;7.13;90.69
69938;DHT22;57248;47.320;15.998;2023-12-14T08:29:33;6.94;90.73
69938;DHT22;57248;47.320;15.998;2023-12-14T08:32:06;7.34;90.44
69938;DHT22;57248;47.320;15.998;2023-12-14T08:34:31;7.71;90.31
69938;DHT22;57248;47.320;15.998;2023-12-14T08:37:03;7.52;90.88
69938;DHT22;57248;47.320;15.998;2023-12-14T08:39:35;7.73;90.10
69938;DHT22;57248;47.320;15.998;2023-12-14T08:42:09;7.75;89.91
69938;DHT22;57248;47.320;15.998;2023-12-14T08:44:43;7.59;89.94
69938;DHT22;57248;47.320;15.998;2023-12-14T08:47:15;7.85;90.41
69938;DHT22;57248;47.320;15.998;2023-12-14T08:49:47;8.06;90.11
69938;DHT22;57248;47.320;15.998;2023-12-14T08:52:19;7.69;90.10
69938;DHT22;57248;47.320;15.998;2023-12-14T08:54:45;7.66;90.81
69938;DHT22;57248;47.320;15.998;2023-12-14T08:57:17;8.43;89.52
69938;DHT22;57248;47.320;15.998;2023-12-14T08:59:49;8.37;88.30
69938;DHT22;57248;47.320;15.998;2023-12-14T09:02:21;8.62;87.82
69938;DHT22;57248;47.320;15.998;2023-12-14T09:05:00;9.03;87.53
69938;DHT22;57248;47.320;15.998;2023-12-14T09:07:34;9.63;85.25
69938;DHT22;57248;47.320;15.998;2023-12-14T09:09:59;10.66;82.85
69938;DHT22;57248;47.320;15.998;2023-12-14T09:12:32;10.26;82.74
69938;DHT22;57248;47.320;15.998;2023-12-14T09:15:05;9.92;85.07
69938;DHT22;57248;47.320;15.998;2023-12-14T09:17:39;10.45;84.46
69938;DHT22;57248;47.320;15.998;2023-12-14T09:20:05;9.94;84.54
69938;DHT22;57248;47.320;15.998;2023-12-14T09:22:38;10.43;82.70
69938;DHT22;57248;47.320;15.998;2023-12-14T09:25:10;10.48;83.29
69938;DHT22;57248;47.320;15.998;2023-12-14T09:27:36;10.79;83.41
69938;DHT22;57248;47.320;15.998;2023-12-14T09:30:09;10.46;83.92
69938;DHT22;57248;47.320;15.998;2023-12-14T09:32:42;10.63;84.01
69938;DHT22;57248;47.320;15.998;2023-12-14T09:35:14;10.72;83.16
69938;DHT22;57248;47.320;15.998;2023-12-14T09:37:46;11.03;83.21
69938;DHT22;57248;47.320;15.998;2023-12-14T09:40:18;11.35;81.57
69938;DHT22;57248;47.320;15.998;2023-12-14T09:42:50;11.00;80.14
69938;DHT22;57248;47.320;15.998;2023-12-14T09:45:17;10.70;81.68
69938;DHT22;57248;47.320;15.998;2023-12-14T09:47:49;11.14;80.79
69938;DHT22;57248;47.320;15.998;2023-12-14T09:50:23;11.24;79.83
69938;DHT22;57248;47.320;15.998;2023-12-14T09:52:55;11.12;79.47
69938;DHT22;57248;47.320;15.998;2023-12-14T09:55:27;11.46;79.86
69938;DHT22;57248;47.320;15.998;2023-12-14T09:57:59;11.32;78.25
69938;DHT22;57248;47.320;15.998;2023-12-14T10:00:39;11.66;79.56
69938;DHT22;57248;47.320;15.998;2023-12-14T10:03:23;12.10;78.23
69938;DHT22;57248;47.320;15.998;2023-12-14T10:06:05;12.24;76.34
69938;DHT22;57248;47.320;15.998;2023-12-14T10:08:37;12.44;76.53
69938;DHT22;57248;47.320;15.998;2023-12-14T10:11:15;12.36;75.37
69938;DHT22;57248;47.320;15.998;2023-12-14T10:13:48;11.94;74.86
69938;DHT22;57248;47.320;15.998;2023-12-14T10:16:27;11.36;77.95
69938;DHT22;57248;47.320;15.998;2023-12-14T10:19:00;11.71;79.15
69938;DHT22;57248;47.320;15.998;2023-12-14T10:21:32;12.06;77.69
69938;DHT22;57248;47.320;15.998;2023-12-14T10:24:05;12.09;76.98
69938;DHT22;57248;47.320;15.998;2023-12-14T10:26:37;11.66;76.94
69938;DHT22;57248;47.320;15.998;2023-12-14T10:29:09;11.49;77.99
69938;DHT22;57248;47.320;15.998;2023-12-14T10:31:36;11.42;77.92
69938;DHT22;57248;47.320;15.998;2023-12-14T10:34:09;11.31;78.13
69938;DHT22;57248;47.320;15.998;2023-12-14T10:36:45;11.34;78.76
69938;DHT22;57248;47.320;15.998;2023-12-14T10:39:14;11.03;81.03
69938;DHT22;57248;47.320;15.998;2023-12-14T10:41:47;11.12;80.97
69938;DHT22;57248;47.320;15.998;2023-12-14T10:44:21;10.97;81.75
69938;DHT22;57248;47.320;15.998;2023-12-14T10:46:58;11.61;78.51
69938;DHT22;57248;47.320;15.998;2023-12-14T10:49:36;11.97;77.54
69938;DHT22;57248;47.320;15.998;2023-12-14T10:52:10;11.69;78.36
69938;DHT22;57248;47.320;15.998;2023-12-14T10:54:37;12.30;76.99
69938;DHT22;57248;47.320;15.998;2023-12-14T10:57:09;11.75;76.78
69938;DHT22;57248;47.320;15.998;2023-12-14T10:59:42;11.61;78.89
69938;DHT22;57248;47.320;15.998;2023-12-14T11:02:14;12.24;77.28
69938;DHT22;57248;47.320;15.998;2023-12-14T11:04:55;13.54;73.32
69938;DHT22;57248;47.320;15.998;2023-12-14T11:10:26;13.73;72.54
69938;DHT22;57248;47.320;15.998;2023-12-14T11:13:02;14.56;69.71
69938;DHT22;57248;47.320;15.998;2023-12-14T11:15:35;13.47;71.67
69938;DHT22;57248;47.320;15.998;2023-12-14T11:26:04;14.43;64.30
69938;DHT22;57248;47.320;15.998;2023-12-14T11:28:38;13.91;61.86
69938;DHT22;57248;47.320;15.998;2023-12-14T11:31:11;14.14;61.13
69938;DHT22;57248;47.320;15.998;2023-12-14T11:33:50;14.08;59.26
69938;DHT22;57248;47.320;15.998;2023-12-14T11:36:22;14.86;56.33
69938;DHT22;57248;47.320;15.998;2023-12-14T11:38:54;16.23;56.76
69938;DHT22;57248;47.320;15.998;2023-12-14T11:41:26;16.89;54.31
69938;DHT22;57248;47.320;15.998;2023-12-14T11:44:02;16.06;55.39
69938;DHT22;57248;47.320;15.998;2023-12-14T11:46:36;16.85;52.91
69938;DHT22;57248;47.320;15.998;2023-12-14T11:49:08;17.69;51.84
69938;DHT22;57248;47.320;15.998;2023-12-14T11:51:34;17.45;49.86
69938;DHT22;57248;47.320;15.998;2023-12-14T11:54:05;17.40;53.53
69938;DHT22;57248;47.320;15.998;2023-12-14T11:56:37;15.57;58.86
69938;DHT22;57248;47.320;15.998;2023-12-14T11:59:11;15.17;65.56
69938;DHT22;57248;47.320;15.998;2023-12-14T12:01:36;15.58;61.98
69938;DHT22;57248;47.320;15.998;2023-12-14T12:04:15;14.28;66.90
69938;DHT22;57248;47.320;15.998;2023-12-14T12:06:58;13.09;70.20
69938;DHT22;57248;47.320;15.998;2023-12-14T12:09:34;12.84;70.39
69938;DHT22;57248;47.320;15.998;2023-12-14T12:12:01;12.21;73.59
69938;DHT22;57248;47.320;15.998;2023-12-14T12:14:34;13.35;70.41
69938;DHT22;57248;47.320;15.998;2023-12-14T12:17:06;13.60;70.47
69938;DHT22;57248;47.320;15.998;2023-12-14T12:19:38;15.04;65.32
69938;DHT22;57248;47.320;15.998;2023-12-14T12:22:04;13.73;66.13
69938;DHT22;57248;47.320;15.998;2023-12-14T12:24:36;14.17;60.93
69938;DHT22;57248;47.320;15.998;2023-12-14T12:27:12;12.57;62.21
69938;DHT22;57248;47.320;15.998;2023-12-14T12:29:43;13.05;61.69
69938;DHT22;57248;47.320;15.998;2023-12-14T12:32:15;12.34;62.71
69938;DHT22;57248;47.320;15.998;2023-12-14T12:34:41;12.29;62.56
69938;DHT22;57248;47.320;15.998;2023-12-14T12:37:13;13.50;62.01
69938;DHT22;57248;47.320;15.998;2023-12-14T12:39:45;14.46;59.83
69938;DHT22;57248;47.320;15.998;2023-12-14T12:42:11;14.09;58.72
69938;DHT22;57248;47.320;15.998;2023-12-14T12:44:43;15.51;57.47
69938;DHT22;57248;47.320;15.998;2023-12-14T12:47:14;16.00;56.05
69938;DHT22;57248;47.320;15.998;2023-12-14T12:49:46;15.30;56.35
69938;DHT22;57248;47.320;15.998;2023-12-14T12:52:18;13.57;60.19
69938;DHT22;57248;47.320;15.998;2023-12-14T12:54:44;12.45;62.49
69938;DHT22;57248;47.320;15.998;2023-12-14T12:57:15;12.42;62.83
69938;DHT22;57248;47.320;15.998;2023-12-14T12:59:47;12.01;64.96
69938;DHT22;57248;47.320;15.998;2023-12-14T13:02:13;11.97;63.95
69938;DHT22;57248;47.320;15.998;2023-12-14T13:04:44;11.82;65.47
69938;DHT22;57248;47.320;15.998;2023-12-14T13:07:17;11.83;63.30
69938;DHT22;57248;47.320;15.998;2023-12-14T13:09:49;11.43;66.76
69938;DHT22;57248;47.320;15.998;2023-12-14T13:12:21;11.11;66.67
69938;DHT22;57248;47.320;15.998;2023-12-14T13:14:53;11.18;67.67
69938;DHT22;57248;47.320;15.998;2023-12-14T13:17:19;10.48;67.65
69938;DHT22;57248;47.320;15.998;2023-12-14T13:19:52;10.21;68.96
69938;DHT22;57248;47.320;15.998;2023-12-14T13:22:23;9.78;68.21
69938;DHT22;57248;47.320;15.998;2023-12-14T13:24:49;9.57;68.94
69938;DHT22;57248;47.320;15.998;2023-12-14T13:27:23;9.53;69.22
69938;DHT22;57248;47.320;15.998;2023-12-14T13:29:57;9.51;68.76
69938;DHT22;57248;47.320;15.998;2023-12-14T13:32:29;9.63;68.90
69938;DHT22;57248;47.320;15.998;2023-12-14T13:34:55;9.65;69.23
69938;DHT22;57248;47.320;15.998;2023-12-14T13:37:27;9.58;70.13
69938;DHT22;57248;47.320;15.998;2023-12-14T13:39:59;9.32;71.11
69938;DHT22;57248;47.320;15.998;2023-12-14T13:42:31;9.34;70.59
69938;DHT22;57248;47.320;15.998;2023-12-14T13:45:04;9.20;71.29
69938;DHT22;57248;47.320;15.998;2023-12-14T13:47:29;9.05;71.13
69938;DHT22;57248;47.320;15.998;2023-12-14T13:50:03;9.01;71.62
69938;DHT22;57248;47.320;15.998;2023-12-14T13:52:36;9.08;72.58
69938;DHT22;57248;47.320;15.998;2023-12-14T13:55:07;8.86;71.74
69938;DHT22;57248;47.320;15.998;2023-12-14T13:57:39;8.86;71.81
69938;DHT22;57248;47.320;15.998;2023-12-14T14:00:13;8.71;72.00
69938;DHT22;57248;47.320;15.998;2023-12-14T14:02:52;8.71;72.63
69938;DHT22;57248;47.320;15.998;2023-12-14T14:05:33;8.78;73.37
69938;DHT22;57248;47.320;15.998;2023-12-14T14:07:59;8.71;70.84
69938;DHT22;57248;47.320;15.998;2023-12-14T14:10:33;8.61;70.09
69938;DHT22;57248;47.320;15.998;2023-12-14T14:13:04;8.67;70.08
69938;DHT22;57248;47.320;15.998;2023-12-14T14:15:38;8.62;69.81
69938;DHT22;57248;47.320;15.998;2023-12-14T14:18:03;8.51;70.19
69938;DHT22;57248;47.320;15.998;2023-12-14T14:20:35;8.57;69.54
69938;DHT22;57248;47.320;15.998;2023-12-14T14:23:07;8.58;69.58
69938;DHT22;57248;47.320;15.998;2023-12-14T14:25:33;8.54;69.61
69938;DHT22;57248;47.320;15.998;2023-12-14T14:28:05;8.44;70.74
69938;DHT22;57248;47.320;15.998;2023-12-14T14:30:37;8.29;70.84
69938;DHT22;57248;47.320;15.998;2023-12-14T14:33:09;8.20;71.29
69938;DHT22;57248;47.320;15.998;2023-12-14T14:35:35;8.17;71.09
69938;DHT22;57248;47.320;15.998;2023-12-14T14:38:08;8.19;70.80
69938;DHT22;57248;47.320;15.998;2023-12-14T14:40:43;8.13;70.75
69938;DHT22;57248;47.320;15.998;2023-12-14T14:43:15;8.13;71.33
69938;DHT22;57248;47.320;15.998;2023-12-14T14:45:48;8.07;71.33
69938;DHT22;57248;47.320;15.998;2023-12-14T14:48:19;7.99;71.62
69938;DHT22;57248;47.320;15.998;2023-12-14T14:50:51;7.96;71.72
69938;DHT22;57248;47.320;15.998;2023-12-14T14:53:25;7.89;71.44
69938;DHT22;57248;47.320;15.998;2023-12-14T14:55:59;7.87;72.55
69938;DHT22;57248;47.320;15.998;2023-12-14T14:58:30;7.73;72.86
69938;DHT22;57248;47.320;15.998;2023-12-14T15:00:56;7.66;71.90
69938;DHT22;57248;47.320;15.998;2023-12-14T15:03:28;7.52;73.10
69938;DHT22;57248;47.320;15.998;2023-12-14T15:06:00;7.48;73.88
69938;DHT22;57248;47.320;15.998;2023-12-14T15:08:32;7.58;72.93
69938;DHT22;57248;47.320;15.998;2023-12-14T15:11:04;7.69;71.64
69938;DHT22;57248;47.320;15.998;2023-12-14T15:13:39;7.69;72.27
69938;DHT22;57248;47.320;15.998;2023-12-14T15:16:13;7.68;72.39
69938;DHT22;57248;47.320;15.998;2023-12-14T15:18:45;7.61;72.92
69938;DHT22;57248;47.320;15.998;2023-12-14T15:21:17;7.48;74.25
69938;DHT22;57248;47.320;15.998;2023-12-14T15:23:43;7.47;73.46
69938;DHT22;57248;47.320;15.998;2023-12-14T15:26:18;7.20;76.33
69938;DHT22;57248;47.320;15.998;2023-12-14T15:28:50;7.03;76.77
69938;DHT22;57248;47.320;15.998;2023-12-14T15:31:22;7.05;76.78
69938;DHT22;57248;47.320;15.998;2023-12-14T15:33:56;6.90;77.91
69938;DHT22;57248;47.320;15.998;2023-12-14T15:36:27;6.84;78.19
69938;DHT22;57248;47.320;15.998;2023-12-14T15:38:55;6.71;78.57
69938;DHT22;57248;47.320;15.998;2023-12-14T15:41:29;6.59;79.28
69938;DHT22;57248;47.320;15.998;2023-12-14T15:44:00;6.43;79.70
69938;DHT22;57248;47.320;15.998;2023-12-14T15:46:34;6.28;80.96
69938;DHT22;57248;47.320;15.998;2023-12-14T15:49:05;6.24;81.20
69938;DHT22;57248;47.320;15.998;2023-12-14T15:51:40;6.94;87.60
69938;DHT22;57248;47.320;15.998;2023-12-14T15:54:14;6.61;86.33
69938;DHT22;57248;47.320;15.998;2023-12-14T15:56:39;6.39;84.30
69938;DHT22;57248;47.320;15.998;2023-12-14T15:59:13;9.51;87.78
69938;DHT22;57248;47.320;15.998;2023-12-14T16:01:44;7.14;79.69
69938;DHT22;57248;47.320;15.998;2023-12-14T16:04:24;6.05;82.49
69938;DHT22;57248;47.320;15.998;2023-12-14T16:06:55;5.71;83.43
69938;DHT22;57248;47.320;15.998;2023-12-14T16:09:27;5.42;84.97